Terminal Aerodrome Forecast
Issued by NWS

Home | Current Version | Previous Version | Text Only | Print | Product List | Glossary On
Versions: 1 2 3 4 5 6 7 8 9 10 11 12 13 14 15 16 17 18 19 20 21 22 23 24 25 26 27 28
327
FTUS44 KBMX 281533 AAB
TAFTOI
TAF AMD
KTOI 281533Z 2816/2912 25005KT P6SM BKN035
     FM282000 24006KT P6SM VCSH BKN040
     FM290600 08002KT 4SM BR OVC015
     FM290900 00000KT 2SM BR OVC004=

USA.gov is the U.S. government's official web portal to all federal, state and local government web resources and services.